createdAt,value
2022-12-31T00:01:18.345Z,4.70
2022-12-31T00:04:05.381Z,4.53
2022-12-31T00:06:52.335Z,4.10
2022-12-31T00:09:39.293Z,4.50
2022-12-31T00:12:26.222Z,4.07
2022-12-31T00:15:13.334Z,5.17
2022-12-31T00:18:00.292Z,4.47
2022-12-31T00:20:47.376Z,4.50
2022-12-31T00:23:34.970Z,4.70
2022-12-31T00:26:24.977Z,3.90
2022-12-31T00:29:12.054Z,3.90
2022-12-31T00:31:59.079Z,3.70
2022-12-31T00:34:46.106Z,3.53
2022-12-31T00:37:33.009Z,4.30
2022-12-31T00:40:20.037Z,4.17
2022-12-31T00:43:06.922Z,5.07
2022-12-31T00:45:54.239Z,5.87
2022-12-31T00:48:41.674Z,6.13
2022-12-31T00:51:29.434Z,6.50
2022-12-31T00:54:16.467Z,8.30
2022-12-31T00:57:03.468Z,9.00
2022-12-31T00:59:50.409Z,9.63
2022-12-31T01:02:37.473Z,10.13
2022-12-31T01:05:24.534Z,10.47
2022-12-31T01:08:11.632Z,10.67
2022-12-31T01:11:18.669Z,8.53
2022-12-31T01:14:06.985Z,6.97
2022-12-31T01:16:54.238Z,6.90
2022-12-31T01:19:41.170Z,5.70
2022-12-31T01:22:28.126Z,5.20
2022-12-31T01:25:15.158Z,5.20
2022-12-31T01:28:03.125Z,4.00
2022-12-31T01:30:50.206Z,5.47
2022-12-31T01:33:37.866Z,4.87
2022-12-31T01:36:30.986Z,3.77
2022-12-31T01:39:17.938Z,3.80
2022-12-31T01:42:05.011Z,3.83
2022-12-31T01:44:55.126Z,4.10
2022-12-31T01:47:49.675Z,4.40
2022-12-31T01:50:38.977Z,3.67
2022-12-31T01:53:25.985Z,3.60
2022-12-31T01:56:13.157Z,3.40
2022-12-31T01:59:00.445Z,3.00
2022-12-31T02:01:48.929Z,3.40
2022-12-31T02:04:36.070Z,4.10
2022-12-31T02:07:23.307Z,5.00
2022-12-31T02:10:10.244Z,3.73
2022-12-31T02:12:57.697Z,3.60
2022-12-31T02:15:56.522Z,3.73
2022-12-31T02:19:12.653Z,3.10
2022-12-31T02:22:24.953Z,2.87
2022-12-31T02:25:36.870Z,3.17
2022-12-31T02:28:42.120Z,3.20
2022-12-31T02:31:45.367Z,3.00
2022-12-31T02:34:38.028Z,2.50
2022-12-31T02:37:28.926Z,2.60
2022-12-31T02:40:19.688Z,2.47
2022-12-31T02:43:06.666Z,3.03
2022-12-31T02:46:14.477Z,4.27
2022-12-31T02:49:30.992Z,2.87
2022-12-31T02:52:42.138Z,2.13
2022-12-31T02:55:47.222Z,4.47
2022-12-31T02:59:01.306Z,2.60
2022-12-31T03:02:12.225Z,2.50
2022-12-31T03:05:02.586Z,3.53
2022-12-31T03:07:49.654Z,4.20
2022-12-31T03:10:37.107Z,3.00
2022-12-31T03:13:25.027Z,2.10
2022-12-31T03:16:11.982Z,2.53
2022-12-31T03:19:17.319Z,3.30
2022-12-31T03:22:23.016Z,3.20
2022-12-31T03:25:28.191Z,1.70
2022-12-31T03:28:18.333Z,1.30
2022-12-31T03:31:06.020Z,2.30
2022-12-31T03:33:53.628Z,2.03
2022-12-31T03:36:40.583Z,1.80
2022-12-31T03:39:27.573Z,4.73
2022-12-31T03:42:14.491Z,2.37
2022-12-31T03:45:03.239Z,1.60
2022-12-31T03:47:50.347Z,1.80
2022-12-31T03:50:37.511Z,1.10
2022-12-31T03:53:24.691Z,1.03
2022-12-31T03:56:11.634Z,1.17
2022-12-31T03:58:58.630Z,2.30
2022-12-31T04:01:45.743Z,1.23
2022-12-31T04:04:32.865Z,1.03
2022-12-31T04:07:19.877Z,0.67
2022-12-31T04:10:09.235Z,1.83
2022-12-31T04:12:56.174Z,1.63
2022-12-31T04:15:43.201Z,1.00
2022-12-31T04:18:30.174Z,0.80
2022-12-31T04:21:17.179Z,1.17
2022-12-31T04:24:04.711Z,1.77
2022-12-31T04:26:51.771Z,1.23
2022-12-31T04:29:39.233Z,0.73
2022-12-31T04:32:26.200Z,0.70
2022-12-31T04:35:13.132Z,2.50
2022-12-31T04:38:00.119Z,0.70
2022-12-31T04:41:05.715Z,0.87
2022-12-31T04:43:57.699Z,0.77
2022-12-31T04:46:44.912Z,0.93
2022-12-31T04:49:31.893Z,0.67
2022-12-31T04:52:19.007Z,0.80
2022-12-31T04:55:06.355Z,1.57
2022-12-31T04:57:53.342Z,0.70
2022-12-31T05:00:40.305Z,0.70
2022-12-31T05:03:27.859Z,1.00
2022-12-31T05:06:20.764Z,1.00
2022-12-31T05:09:07.742Z,0.80
2022-12-31T05:11:54.655Z,1.00
2022-12-31T05:14:41.671Z,0.90
2022-12-31T05:17:28.621Z,1.30
2022-12-31T05:20:15.631Z,1.13
2022-12-31T05:23:02.828Z,1.20
2022-12-31T05:25:50.144Z,1.10
2022-12-31T05:28:37.149Z,1.60
2022-12-31T05:31:24.137Z,1.90
2022-12-31T05:34:11.127Z,1.20
2022-12-31T05:36:58.087Z,2.27
2022-12-31T05:39:45.077Z,1.63
2022-12-31T05:42:32.084Z,2.00
2022-12-31T05:45:21.047Z,1.60
2022-12-31T05:48:09.789Z,1.37
2022-12-31T05:50:57.115Z,1.40
2022-12-31T05:53:44.136Z,1.70
2022-12-31T05:56:31.664Z,2.03
2022-12-31T05:59:18.832Z,2.10
2022-12-31T06:02:05.857Z,3.47
2022-12-31T06:04:52.975Z,1.50
2022-12-31T06:07:40.004Z,2.43
2022-12-31T06:10:27.052Z,2.10
2022-12-31T06:13:14.018Z,1.70
2022-12-31T06:16:08.852Z,1.70
2022-12-31T06:18:55.951Z,1.70
2022-12-31T06:21:42.947Z,1.87
2022-12-31T06:24:30.005Z,2.73
2022-12-31T06:27:16.978Z,2.50
2022-12-31T06:30:04.311Z,1.90
2022-12-31T06:32:51.351Z,2.77
2022-12-31T06:35:38.279Z,2.00
2022-12-31T06:38:26.745Z,4.97
2022-12-31T06:41:15.870Z,3.27
2022-12-31T06:44:02.799Z,2.83
2022-12-31T06:46:50.888Z,1.87
2022-12-31T06:49:40.616Z,1.87
2022-12-31T06:52:27.600Z,1.47
2022-12-31T06:55:15.152Z,2.00
2022-12-31T06:58:02.424Z,1.50
2022-12-31T07:01:03.833Z,0.97
2022-12-31T07:04:03.352Z,0.60
2022-12-31T07:07:01.220Z,0.67
2022-12-31T07:10:00.518Z,0.90
2022-12-31T07:12:58.380Z,1.43
2022-12-31T07:15:51.619Z,1.20
2022-12-31T07:19:14.015Z,0.47
2022-12-31T07:22:02.729Z,0.57
2022-12-31T07:24:50.146Z,0.53
2022-12-31T07:27:58.820Z,0.87
2022-12-31T07:30:51.014Z,0.70
2022-12-31T07:33:47.075Z,0.83
2022-12-31T07:37:06.139Z,1.17
2022-12-31T07:40:10.969Z,1.00
2022-12-31T07:43:03.459Z,1.10
2022-12-31T07:45:59.079Z,1.13
2022-12-31T07:48:46.322Z,1.60
2022-12-31T07:51:33.526Z,2.93
2022-12-31T07:54:21.518Z,1.93
2022-12-31T07:57:11.976Z,2.93
2022-12-31T08:00:03.445Z,1.80
2022-12-31T08:03:23.919Z,0.70
2022-12-31T08:06:22.498Z,1.33
2022-12-31T08:09:28.670Z,3.50
2022-12-31T08:12:15.783Z,2.30
2022-12-31T08:15:03.088Z,2.10
2022-12-31T08:17:50.333Z,2.20
2022-12-31T08:20:53.244Z,2.60
2022-12-31T08:23:55.034Z,3.90
2022-12-31T08:26:57.655Z,2.23
2022-12-31T08:29:55.465Z,4.30
2022-12-31T08:32:49.310Z,4.20
2022-12-31T08:36:08.075Z,4.67
2022-12-31T08:39:04.185Z,5.23
2022-12-31T08:41:54.976Z,5.17
2022-12-31T08:45:01.783Z,4.97
2022-12-31T08:48:04.633Z,5.63
2022-12-31T08:50:51.912Z,7.03
2022-12-31T08:53:39.098Z,5.93
2022-12-31T08:56:34.497Z,6.83
2022-12-31T09:00:00.219Z,4.77
2022-12-31T09:03:14.933Z,4.20
2022-12-31T09:06:10.844Z,5.77
2022-12-31T09:09:13.059Z,5.33
2022-12-31T09:11:59.997Z,6.10
2022-12-31T09:14:58.670Z,8.70
2022-12-31T09:17:50.806Z,6.60
2022-12-31T09:20:43.352Z,6.83
2022-12-31T09:23:31.814Z,5.97
2022-12-31T09:26:30.896Z,6.87
2022-12-31T09:29:43.623Z,3.20
2022-12-31T09:33:11.858Z,6.53
2022-12-31T09:36:03.741Z,6.93
2022-12-31T09:39:03.025Z,5.53
2022-12-31T09:42:13.282Z,5.20
2022-12-31T09:45:30.544Z,5.27
2022-12-31T09:48:38.065Z,3.93
2022-12-31T09:51:25.642Z,4.47
2022-12-31T09:54:21.850Z,5.70
2022-12-31T09:57:23.826Z,2.90
2022-12-31T10:00:43.792Z,3.53
2022-12-31T10:03:43.952Z,7.13
2022-12-31T10:06:57.262Z,3.80
2022-12-31T10:10:09.561Z,5.03
2022-12-31T10:13:20.174Z,1.83
2022-12-31T10:16:21.524Z,2.93
2022-12-31T10:19:34.584Z,1.37
2022-12-31T10:22:24.282Z,2.20
2022-12-31T10:25:38.669Z,1.80
2022-12-31T10:28:42.924Z,1.50
2022-12-31T10:31:40.667Z,1.53
2022-12-31T10:35:01.402Z,4.37
2022-12-31T10:38:06.075Z,2.30
2022-12-31T10:41:14.545Z,3.37
2022-12-31T10:44:39.068Z,1.33
2022-12-31T10:48:11.084Z,2.63
2022-12-31T10:51:30.162Z,2.80
2022-12-31T10:54:32.638Z,4.20
2022-12-31T10:58:04.288Z,2.83
2022-12-31T11:01:12.970Z,5.37
2022-12-31T11:04:39.314Z,2.40
2022-12-31T11:07:51.925Z,1.57
2022-12-31T11:10:47.804Z,2.23
2022-12-31T11:13:43.610Z,3.63
2022-12-31T11:16:45.155Z,2.30
2022-12-31T11:20:12.113Z,2.73
2022-12-31T11:23:32.240Z,1.23
2022-12-31T11:26:43.701Z,1.73
2022-12-31T11:29:56.825Z,1.97
2022-12-31T11:33:02.630Z,2.30
2022-12-31T11:36:21.277Z,1.80
2022-12-31T11:39:30.785Z,2.10
2022-12-31T11:42:25.077Z,2.70
2022-12-31T11:45:19.899Z,3.93
2022-12-31T11:51:36.623Z,4.70
2022-12-31T11:54:45.545Z,5.37
2022-12-31T11:57:38.190Z,3.90
2022-12-31T12:00:26.923Z,5.10
2022-12-31T12:03:14.139Z,4.57
2022-12-31T12:06:01.352Z,3.67
2022-12-31T12:08:59.451Z,6.03
2022-12-31T12:11:46.407Z,3.80
2022-12-31T12:14:36.916Z,3.33
2022-12-31T12:17:32.175Z,2.77
2022-12-31T12:20:26.802Z,6.00
2022-12-31T12:23:24.371Z,3.93
2022-12-31T12:26:39.728Z,5.83
2022-12-31T12:29:39.840Z,5.13
2022-12-31T12:32:27.499Z,6.30
2022-12-31T12:35:16.743Z,4.07
2022-12-31T12:38:05.287Z,3.57
2022-12-31T12:41:00.743Z,3.97
2022-12-31T12:43:47.775Z,2.77
2022-12-31T12:46:48.002Z,3.77
2022-12-31T12:49:42.138Z,4.00
2022-12-31T12:53:01.440Z,3.07
2022-12-31T12:56:19.727Z,3.53
2022-12-31T12:59:36.666Z,3.73
2022-12-31T13:03:01.529Z,3.20
2022-12-31T13:06:07.252Z,5.57
2022-12-31T13:09:51.166Z,2.70
2022-12-31T13:16:03.364Z,4.63
2022-12-31T13:19:00.529Z,2.20
2022-12-31T13:22:03.671Z,4.60
2022-12-31T13:25:06.794Z,3.13
2022-12-31T13:27:58.518Z,4.70
2022-12-31T13:31:06.329Z,2.90
2022-12-31T13:33:59.408Z,3.63
2022-12-31T13:36:48.706Z,2.13
2022-12-31T13:39:42.028Z,6.30
2022-12-31T13:42:36.354Z,7.13
2022-12-31T13:45:35.111Z,5.30
2022-12-31T13:48:32.498Z,4.73
2022-12-31T13:51:33.957Z,3.07
2022-12-31T13:54:45.853Z,3.77
2022-12-31T13:58:08.286Z,4.10
2022-12-31T14:01:06.996Z,2.83
2022-12-31T14:04:20.309Z,4.37
2022-12-31T14:07:16.824Z,4.20
2022-12-31T14:10:12.107Z,3.10
2022-12-31T14:13:21.288Z,2.10
2022-12-31T14:16:40.977Z,3.40
2022-12-31T14:20:21.977Z,4.37
2022-12-31T14:23:14.650Z,2.40
2022-12-31T14:26:07.692Z,2.87
2022-12-31T14:28:57.610Z,4.17
2022-12-31T14:31:53.522Z,2.40
2022-12-31T14:35:18.634Z,3.10
2022-12-31T14:38:17.796Z,4.23
2022-12-31T14:41:41.881Z,2.10
2022-12-31T14:44:48.429Z,3.40
2022-12-31T14:48:07.757Z,6.77
2022-12-31T14:50:55.737Z,2.90
2022-12-31T14:53:53.602Z,5.00
2022-12-31T14:56:44.094Z,3.97
2022-12-31T14:59:34.441Z,3.60
2022-12-31T15:02:31.258Z,3.10
2022-12-31T15:05:28.411Z,3.10
2022-12-31T15:08:28.391Z,2.80
2022-12-31T15:11:52.414Z,5.90
2022-12-31T15:15:07.343Z,3.37
2022-12-31T15:18:02.702Z,4.77
2022-12-31T15:21:27.148Z,3.00
2022-12-31T15:24:22.843Z,3.63
2022-12-31T15:27:35.884Z,4.70
2022-12-31T15:30:28.898Z,2.43
2022-12-31T15:33:30.954Z,5.73
2022-12-31T15:36:20.807Z,4.67
2022-12-31T15:39:25.839Z,4.53
2022-12-31T15:42:49.186Z,4.70
2022-12-31T15:45:40.167Z,5.07
2022-12-31T15:48:42.035Z,3.33
2022-12-31T15:51:33.472Z,3.33
2022-12-31T15:54:31.245Z,3.70
2022-12-31T15:57:30.599Z,2.37
2022-12-31T16:00:22.595Z,3.90
2022-12-31T16:03:22.688Z,3.63
2022-12-31T16:06:16.281Z,4.47
2022-12-31T16:09:06.641Z,4.07
2022-12-31T16:11:56.212Z,4.97
2022-12-31T16:14:49.321Z,4.37
2022-12-31T16:17:39.250Z,4.47
2022-12-31T16:20:30.456Z,4.80
2022-12-31T16:23:27.836Z,5.50
2022-12-31T16:26:14.814Z,5.23
2022-12-31T16:29:04.351Z,3.13
2022-12-31T16:31:53.825Z,4.83
2022-12-31T16:34:40.866Z,6.70
2022-12-31T16:37:27.910Z,5.83
2022-12-31T16:40:21.481Z,8.00
2022-12-31T16:43:28.030Z,7.27
2022-12-31T16:46:32.111Z,5.80
2022-12-31T16:49:21.580Z,5.23
2022-12-31T16:52:27.531Z,7.67
2022-12-31T16:55:29.249Z,3.77
2022-12-31T16:58:45.471Z,3.80
2022-12-31T17:01:35.706Z,5.50
2022-12-31T17:04:24.087Z,6.40
2022-12-31T17:07:29.819Z,4.63
2022-12-31T17:10:34.273Z,4.93
2022-12-31T17:13:29.853Z,8.13
2022-12-31T17:16:18.041Z,2.90
2022-12-31T17:19:05.114Z,5.10
2022-12-31T17:21:52.161Z,5.27
2022-12-31T17:24:39.659Z,10.80
2022-12-31T17:27:26.786Z,3.77
2022-12-31T17:30:35.237Z,5.13
2022-12-31T17:33:22.179Z,4.33
2022-12-31T17:36:23.151Z,6.93
2022-12-31T17:39:22.599Z,3.07
2022-12-31T17:42:12.848Z,4.90
2022-12-31T17:45:03.218Z,3.53
2022-12-31T17:47:52.551Z,5.13
2022-12-31T17:50:50.926Z,4.40
2022-12-31T17:53:38.043Z,6.43
2022-12-31T17:56:25.010Z,5.27
2022-12-31T17:59:22.818Z,4.13
2022-12-31T18:02:13.218Z,5.13
2022-12-31T18:05:00.357Z,4.33
2022-12-31T18:07:47.733Z,3.70
2022-12-31T18:10:37.539Z,6.97
2022-12-31T18:13:26.399Z,4.30
2022-12-31T18:16:13.884Z,6.70
2022-12-31T18:19:01.454Z,3.13
2022-12-31T18:21:48.450Z,3.03
2022-12-31T18:24:35.448Z,8.00
2022-12-31T18:27:22.830Z,5.87
2022-12-31T18:30:11.141Z,4.70
2022-12-31T18:32:58.175Z,5.50
2022-12-31T18:38:52.962Z,3.53
2022-12-31T18:41:46.710Z,4.87
2022-12-31T18:44:33.699Z,4.20
2022-12-31T18:47:24.527Z,5.90
2022-12-31T18:50:16.568Z,5.53
2022-12-31T18:53:03.692Z,5.23
2022-12-31T18:55:57.057Z,7.20
2022-12-31T18:58:45.211Z,3.70
2022-12-31T19:01:35.698Z,5.93
2022-12-31T19:04:27.612Z,3.53
2022-12-31T19:07:15.403Z,2.57
2022-12-31T19:10:02.314Z,3.90
2022-12-31T19:12:49.655Z,6.90
2022-12-31T19:15:43.911Z,3.80
2022-12-31T19:18:31.004Z,4.43
2022-12-31T19:21:22.781Z,7.47
2022-12-31T19:24:18.631Z,4.03
2022-12-31T19:27:05.576Z,3.27
2022-12-31T19:29:52.682Z,5.50
2022-12-31T19:32:39.638Z,2.50
2022-12-31T19:35:27.144Z,5.13
2022-12-31T19:38:20.972Z,3.43
2022-12-31T19:41:15.130Z,4.47
2022-12-31T19:44:02.172Z,3.80
2022-12-31T19:46:49.445Z,5.07
2022-12-31T19:49:36.419Z,4.70
2022-12-31T19:52:23.422Z,6.27
2022-12-31T19:55:14.401Z,3.87
2022-12-31T19:58:01.440Z,5.30
2022-12-31T20:00:55.608Z,5.73
2022-12-31T20:03:43.988Z,5.10
2022-12-31T20:06:30.953Z,6.00
2022-12-31T20:09:17.950Z,3.53
2022-12-31T20:12:05.064Z,5.27
2022-12-31T20:14:52.079Z,5.17
2022-12-31T20:17:39.118Z,5.43
2022-12-31T20:20:29.188Z,7.17
2022-12-31T20:23:16.642Z,6.80
2022-12-31T20:26:03.721Z,5.90
2022-12-31T20:28:51.225Z,3.47
2022-12-31T20:31:39.422Z,4.40
2022-12-31T20:34:26.484Z,3.97
2022-12-31T20:37:13.426Z,5.97
2022-12-31T20:40:00.400Z,4.07
2022-12-31T20:42:47.406Z,5.43
2022-12-31T20:45:34.427Z,8.47
2022-12-31T20:48:21.364Z,5.97
2022-12-31T20:51:08.534Z,6.60
2022-12-31T20:53:58.596Z,8.17
2022-12-31T20:56:45.577Z,6.23
2022-12-31T20:59:32.612Z,5.40
2022-12-31T21:02:29.568Z,5.60
2022-12-31T21:05:21.509Z,5.00
2022-12-31T21:08:08.608Z,5.97
2022-12-31T21:10:55.607Z,3.87
2022-12-31T21:13:42.585Z,7.47
2022-12-31T21:16:29.620Z,5.80
2022-12-31T21:19:16.654Z,4.17
2022-12-31T21:22:03.627Z,6.40
2022-12-31T21:24:50.581Z,7.63
2022-12-31T21:27:37.508Z,9.23
2022-12-31T21:30:24.906Z,5.33
2022-12-31T21:33:11.838Z,7.03
2022-12-31T21:36:04.211Z,6.93
2022-12-31T21:38:51.771Z,6.80
2022-12-31T21:41:53.647Z,5.90
2022-12-31T21:44:40.611Z,8.10
2022-12-31T21:47:47.842Z,8.40
2022-12-31T21:50:35.054Z,8.00
2022-12-31T21:53:30.473Z,6.53
2022-12-31T21:56:21.835Z,8.93
2022-12-31T21:59:27.392Z,5.90
2022-12-31T22:02:32.830Z,9.70
2022-12-31T22:05:24.986Z,9.37
2022-12-31T22:08:12.308Z,4.90
2022-12-31T22:10:59.290Z,5.80
2022-12-31T22:13:47.172Z,9.17
2022-12-31T22:16:34.195Z,9.47
2022-12-31T22:19:21.474Z,8.20
2022-12-31T22:22:08.688Z,9.77
2022-12-31T22:24:55.610Z,9.43
2022-12-31T22:27:45.451Z,5.50
2022-12-31T22:30:48.062Z,6.70
2022-12-31T22:33:35.216Z,6.27
2022-12-31T22:36:23.488Z,8.53
2022-12-31T22:39:43.415Z,5.73
2022-12-31T22:42:22.080Z,7.70
2022-12-31T22:45:09.838Z,6.37
2022-12-31T22:47:56.758Z,7.00
2022-12-31T22:50:43.734Z,8.67
2022-12-31T22:53:30.743Z,6.50
2022-12-31T22:56:19.119Z,10.10
2022-12-31T22:59:06.077Z,9.70
2022-12-31T23:01:53.013Z,11.03
2022-12-31T23:04:40.066Z,11.20
2022-12-31T23:07:27.087Z,7.33
2022-12-31T23:10:32.269Z,8.70
2022-12-31T23:13:38.163Z,9.57
2022-12-31T23:16:45.788Z,10.97
2022-12-31T23:19:51.649Z,15.70
2022-12-31T23:22:57.196Z,17.30
2022-12-31T23:25:47.649Z,16.67
2022-12-31T23:28:34.586Z,17.00
2022-12-31T23:31:21.546Z,12.73
2022-12-31T23:34:09.525Z,12.73
2022-12-31T23:36:56.563Z,12.37
2022-12-31T23:39:43.583Z,18.57
2022-12-31T23:42:30.607Z,13.30
2022-12-31T23:45:17.614Z,14.93
2022-12-31T23:48:05.141Z,15.07
2022-12-31T23:50:54.261Z,15.03
2022-12-31T23:53:41.460Z,14.87
2022-12-31T23:56:28.591Z,13.20
2022-12-31T23:59:15.604Z,10.73
